Time;durP1;ratioP1;P1;durP2;ratioP2;P2;SDS_P1;SDS_P2;PMS_P1;PMS_P2;Temp;Humidity;BMP_temperature;BMP_pressure;BME280_temperature;BME280_humidity;BME280_pressure;Samples;Min_cycle;Max_cycle;Signal;HPM_P1;HPM_P2
2022/03/28 00:02:25;;;;;;;9.43;7.60;;;8.30;65.20;;;;;;6261516;28;20232;-58
2022/03/28 00:05:26;;;;;;;12.07;8.90;;;8.30;65.70;;;;;;6236668;28;20194;-57
2022/03/28 00:08:28;;;;;;;11.73;8.73;;;8.30;65.80;;;;;;6222781;28;20248;-56
2022/03/28 00:11:28;;;;;;;11.07;9.03;;;8.10;66.20;;;;;;6276578;28;20231;-56
2022/03/28 00:14:29;;;;;;;11.50;8.73;;;8.00;66.10;;;;;;6260811;28;20185;-55
2022/03/28 00:17:32;;;;;;;9.70;7.97;;;7.90;66.40;;;;;;6260054;28;20273;-55
2022/03/28 00:20:33;;;;;;;10.67;8.27;;;7.90;67.10;;;;;;6277201;28;20190;-56
2022/03/28 00:23:34;;;;;;;11.50;8.57;;;7.80;67.10;;;;;;6259791;28;20198;-52
2022/03/28 00:26:35;;;;;;;8.90;7.20;;;7.80;67.60;;;;;;6260543;28;20197;-56
2022/03/28 00:29:36;;;;;;;9.60;7.93;;;7.70;67.70;;;;;;6260780;28;20264;-52
2022/03/28 00:32:37;;;;;;;10.87;7.67;;;7.70;67.50;;;;;;6238763;28;20262;-55
2022/03/28 00:35:38;;;;;;;9.03;7.50;;;7.60;67.90;;;;;;6255814;28;20189;-54
2022/03/28 00:38:40;;;;;;;7.47;6.50;;;7.60;67.80;;;;;;6236004;28;20214;-55
2022/03/28 00:41:41;;;;;;;8.93;7.20;;;7.50;68.40;;;;;;6275721;28;20201;-58
2022/03/28 00:44:41;;;;;;;7.33;6.53;;;7.50;68.10;;;;;;6227782;28;20209;-58
2022/03/28 00:47:43;;;;;;;7.93;6.80;;;7.40;67.70;;;;;;6218830;28;20201;-58
2022/03/28 00:50:44;;;;;;;8.07;7.07;;;7.30;68.30;;;;;;6243082;28;20197;-58
2022/03/28 00:53:46;;;;;;;8.93;7.70;;;7.30;68.20;;;;;;6273465;28;20300;-58
2022/03/28 00:56:48;;;;;;;8.77;7.20;;;7.40;67.70;;;;;;6259708;28;20178;-58
2022/03/28 00:59:49;;;;;;;9.50;6.97;;;7.30;68.40;;;;;;6271799;28;20202;-58
2022/03/28 01:02:50;;;;;;;15.73;8.03;;;7.30;69.10;;;;;;6243000;28;20480;-58
2022/03/28 01:05:50;;;;;;;10.70;7.67;;;7.30;68.40;;;;;;6251691;28;20203;-57
2022/03/28 01:08:52;;;;;;;10.10;6.97;;;7.30;68.30;;;;;;6251177;28;20199;-58
2022/03/28 01:11:54;;;;;;;10.80;7.33;;;7.30;68.80;;;;;;6274998;28;20218;-57
2022/03/28 01:14:55;;;;;;;10.77;7.43;;;7.30;68.90;;;;;;6264819;28;20197;-58
2022/03/28 01:18:11;;;;;;;9.77;7.53;;;7.30;68.60;;;;;;6261690;28;20193;-57
2022/03/28 01:21:12;;;;;;;12.03;8.20;;;7.30;68.80;;;;;;6266953;28;20195;-57
2022/03/28 01:24:13;;;;;;;12.03;7.47;;;7.30;68.90;;;;;;6234511;28;20225;-56
2022/03/28 01:27:15;;;;;;;9.37;7.93;;;7.30;69.00;;;;;;6257537;28;20264;-58
2022/03/28 01:30:16;;;;;;;10.63;7.47;;;7.10;69.50;;;;;;6274937;28;20194;-56
2022/03/28 01:33:17;;;;;;;10.40;8.13;;;7.10;69.30;;;;;;6275336;28;20224;-57
2022/03/28 01:36:24;;;;;;;10.63;6.97;;;7.00;69.60;;;;;;6275634;28;20258;-55
2022/03/28 01:39:26;;;;;;;9.30;7.57;;;7.00;69.30;;;;;;6300258;28;20186;-57
2022/03/28 01:42:26;;;;;;;9.97;7.10;;;7.00;69.70;;;;;;6293987;28;20196;-53
2022/03/28 01:45:27;;;;;;;8.87;7.33;;;6.90;70.00;;;;;;6258678;28;20198;-57
2022/03/28 01:48:29;;;;;;;13.43;7.20;;;6.80;70.40;;;;;;6275172;28;20197;-56
2022/03/28 01:51:31;;;;;;;7.83;6.53;;;6.80;70.10;;;;;;6258585;28;20197;-57
2022/03/28 01:54:32;;;;;;;8.50;7.00;;;6.80;69.80;;;;;;6257898;28;20695;-56
2022/03/28 01:57:33;;;;;;;8.87;7.97;;;6.80;70.10;;;;;;6258749;28;20223;-56
2022/03/28 02:00:33;;;;;;;7.77;6.97;;;6.80;69.90;;;;;;6275418;28;20191;-56
2022/03/28 02:03:34;;;;;;;8.50;6.60;;;6.80;69.90;;;;;;6263982;28;20223;-57
2022/03/28 02:06:35;;;;;;;9.57;7.53;;;6.80;70.10;;;;;;6257577;28;20205;-56
2022/03/28 02:09:36;;;;;;;12.83;7.30;;;6.70;70.30;;;;;;6270739;28;20201;-57
2022/03/28 02:12:37;;;;;;;7.50;6.70;;;6.70;70.20;;;;;;6241448;28;20217;-55
2022/03/28 02:15:38;;;;;;;8.27;6.83;;;6.70;70.00;;;;;;6258197;28;20189;-56
2022/03/28 02:18:39;;;;;;;11.67;6.97;;;6.70;70.70;;;;;;6244206;28;20220;-56
2022/03/28 02:21:40;;;;;;;9.37;7.67;;;6.60;71.40;;;;;;6250077;28;20232;-55
2022/03/28 02:24:40;;;;;;;8.87;7.13;;;6.60;71.00;;;;;;6287052;28;20193;-56
2022/03/28 02:27:43;;;;;;;9.90;7.20;;;6.50;71.40;;;;;;6276665;28;20247;-57
2022/03/28 02:30:44;;;;;;;8.93;6.67;;;6.50;70.90;;;;;;6256916;28;20186;-55
2022/03/28 02:33:44;;;;;;;8.47;6.97;;;6.50;70.80;;;;;;6307638;28;20216;-53
2022/03/28 02:36:45;;;;;;;9.13;7.00;;;6.40;71.30;;;;;;6283770;28;20199;-51
2022/03/28 02:39:46;;;;;;;8.30;7.20;;;6.30;71.50;;;;;;6248270;28;20220;-57
2022/03/28 02:42:47;;;;;;;10.77;7.43;;;6.30;71.60;;;;;;6252159;28;20195;-55
2022/03/28 02:45:47;;;;;;;9.73;6.97;;;6.30;71.20;;;;;;6269954;28;20193;-56
2022/03/28 02:48:48;;;;;;;9.97;6.77;;;6.30;71.30;;;;;;6290883;28;20188;-52
2022/03/28 02:51:49;;;;;;;10.83;7.47;;;6.30;71.20;;;;;;6289955;28;20213;-54
2022/03/28 02:54:50;;;;;;;10.73;6.80;;;6.30;71.30;;;;;;6265710;28;20286;-54
2022/03/28 02:57:53;;;;;;;9.73;7.27;;;6.30;71.40;;;;;;6265347;28;20321;-55
2022/03/28 03:00:54;;;;;;;9.17;7.17;;;6.30;71.00;;;;;;6250863;28;20182;-56
2022/03/28 03:03:55;;;;;;;11.53;7.27;;;6.30;71.30;;;;;;6273587;28;20189;-54
2022/03/28 03:06:56;;;;;;;9.57;7.37;;;6.30;71.10;;;;;;6273390;28;20262;-56
2022/03/28 03:09:57;;;;;;;10.47;8.10;;;6.30;71.60;;;;;;6283995;28;20200;-57
2022/03/28 03:12:58;;;;;;;10.67;7.73;;;6.30;72.00;;;;;;6279986;28;20216;-57
2022/03/28 03:15:59;;;;;;;11.57;8.40;;;6.10;72.70;;;;;;6297679;28;20192;-56
2022/03/28 03:19:00;;;;;;;10.40;7.50;;;6.10;72.70;;;;;;6257656;28;20284;-58
2022/03/28 03:22:01;;;;;;;12.37;7.90;;;6.20;72.20;;;;;;6265354;28;20272;-56
2022/03/28 03:25:02;;;;;;;8.90;7.03;;;6.30;72.10;;;;;;6264962;28;20197;-58
2022/03/28 03:28:03;;;;;;;10.10;7.50;;;6.20;72.00;;;;;;6256648;28;20269;-56
2022/03/28 03:31:06;;;;;;;9.17;7.07;;;6.10;72.10;;;;;;6263453;28;20242;-57
2022/03/28 03:34:07;;;;;;;9.57;7.73;;;6.20;72.10;;;;;;6265164;28;20252;-57
2022/03/28 03:37:08;;;;;;;10.53;7.93;;;6.20;71.80;;;;;;6241184;28;20243;-58
2022/03/28 03:40:12;;;;;;;10.73;8.10;;;6.10;72.20;;;;;;6256696;28;20284;-56
2022/03/28 03:43:12;;;;;;;10.37;7.80;;;6.10;72.40;;;;;;6262137;28;20214;-58
2022/03/28 03:46:13;;;;;;;15.00;9.23;;;6.10;72.80;;;;;;6260972;28;20199;-56
2022/03/28 03:49:18;;;;;;;9.53;8.20;;;6.20;72.50;;;;;;6293465;28;20195;-58
2022/03/28 03:52:18;;;;;;;14.20;9.17;;;6.20;72.40;;;;;;6277562;28;20300;-53
2022/03/28 03:55:19;;;;;;;13.43;10.10;;;6.10;72.80;;;;;;6277484;28;20193;-57
2022/03/28 03:58:20;;;;;;;14.77;10.33;;;6.10;72.40;;;;;;6260897;28;20200;-57
2022/03/28 04:01:21;;;;;;;13.23;9.10;;;6.10;72.20;;;;;;6260594;28;20198;-55
2022/03/28 04:04:22;;;;;;;12.73;9.57;;;6.00;72.50;;;;;;6277454;28;20196;-56
2022/03/28 04:07:23;;;;;;;10.40;8.27;;;6.00;72.50;;;;;;6233355;28;20192;-57
2022/03/28 04:10:24;;;;;;;12.07;9.67;;;6.00;72.10;;;;;;6246492;28;20193;-58
2022/03/28 04:13:24;;;;;;;11.00;9.33;;;5.90;72.60;;;;;;6262981;28;20255;-56
2022/03/28 04:16:25;;;;;;;10.93;8.83;;;5.90;72.50;;;;;;6274267;28;20201;-58
2022/03/28 04:19:26;;;;;;;11.43;8.80;;;5.80;73.00;;;;;;6260868;28;20223;-55
2022/03/28 04:22:27;;;;;;;11.40;8.90;;;5.80;72.80;;;;;;6245711;28;20204;-58
2022/03/28 04:25:28;;;;;;;12.60;8.93;;;5.80;73.60;;;;;;6279043;28;20189;-53
2022/03/28 04:28:28;;;;;;;12.23;9.37;;;5.70;73.40;;;;;;6243815;28;20236;-53
2022/03/28 04:31:29;;;;;;;11.33;9.17;;;5.70;73.30;;;;;;6291183;28;20197;-56
2022/03/28 04:34:30;;;;;;;13.93;9.47;;;5.70;73.30;;;;;;6279468;28;20248;-55
2022/03/28 04:37:39;;;;;;;13.43;8.80;;;5.60;73.30;;;;;;6282210;28;20256;-51
2022/03/28 04:40:40;;;;;;;12.77;9.50;;;5.60;73.40;;;;;;6292692;28;20266;-54
2022/03/28 04:43:41;;;;;;;12.00;9.33;;;5.60;73.20;;;;;;6317347;28;20215;-54
2022/03/28 04:46:42;;;;;;;11.57;9.10;;;5.60;73.50;;;;;;6279086;28;20316;-52
2022/03/28 04:49:43;;;;;;;12.10;8.73;;;5.60;73.90;;;;;;6280221;28;20292;-54
2022/03/28 04:52:44;;;;;;;12.60;9.30;;;5.70;73.70;;;;;;6283257;28;20248;-55
2022/03/28 04:55:45;;;;;;;11.93;8.93;;;5.70;73.10;;;;;;6258949;28;20189;-55
2022/03/28 04:58:46;;;;;;;11.53;9.00;;;5.70;73.30;;;;;;6259372;28;20204;-56
2022/03/28 05:01:46;;;;;;;14.73;10.27;;;5.70;72.80;;;;;;6259938;28;20197;-55
2022/03/28 05:04:47;;;;;;;12.53;8.90;;;5.70;73.40;;;;;;6277212;28;20288;-50
2022/03/28 05:07:48;;;;;;;13.23;9.93;;;5.70;73.40;;;;;;6258665;28;20194;-49
2022/03/28 05:10:49;;;;;;;12.43;9.17;;;5.60;73.60;;;;;;6274917;28;20208;-55
2022/03/28 05:13:50;;;;;;;14.40;9.00;;;5.60;73.60;;;;;;6294647;28;20277;-56
2022/03/28 05:16:51;;;;;;;10.97;9.07;;;5.60;73.50;;;;;;6285633;28;20182;-55
2022/03/28 05:19:53;;;;;;;16.07;9.50;;;5.60;73.90;;;;;;6270676;28;20254;-52
2022/03/28 05:22:54;;;;;;;12.30;8.80;;;5.60;73.50;;;;;;6283725;28;20295;-53
2022/03/28 05:25:55;;;;;;;12.10;8.80;;;5.60;73.30;;;;;;6283988;28;20188;-53
2022/03/28 05:28:56;;;;;;;13.67;9.70;;;5.70;73.30;;;;;;6287279;28;20236;-54
2022/03/28 05:31:57;;;;;;;14.80;10.17;;;5.60;73.90;;;;;;6263684;28;20354;-55
2022/03/28 05:34:57;;;;;;;13.33;9.73;;;5.70;73.20;;;;;;6274983;28;20202;-55
2022/03/28 05:37:59;;;;;;;13.30;10.03;;;5.70;73.20;;;;;;6260460;28;20198;-53
2022/03/28 05:41:00;;;;;;;11.97;9.67;;;5.70;73.30;;;;;;6271857;28;20193;-54
2022/03/28 05:44:01;;;;;;;13.27;9.27;;;5.70;73.30;;;;;;6285324;28;20250;-55
2022/03/28 05:47:02;;;;;;;13.60;9.43;;;5.80;73.80;;;;;;6291480;28;20221;-53
2022/03/28 05:50:04;;;;;;;15.73;10.03;;;5.90;73.70;;;;;;6290008;28;20295;-53
2022/03/28 05:53:05;;;;;;;14.77;9.20;;;6.00;73.70;;;;;;6258692;28;20217;-55
2022/03/28 05:56:06;;;;;;;13.63;10.63;;;6.00;73.70;;;;;;6289422;28;20190;-54
2022/03/28 05:59:07;;;;;;;11.00;8.97;;;6.00;73.80;;;;;;6284931;28;20200;-53
2022/03/28 06:02:08;;;;;;;12.07;9.47;;;6.00;73.80;;;;;;6274401;28;20181;-55
2022/03/28 06:05:10;;;;;;;13.70;10.50;;;6.10;74.20;;;;;;6289962;28;20189;-50
2022/03/28 06:08:11;;;;;;;13.50;10.40;;;6.20;74.10;;;;;;6289226;28;20191;-56
2022/03/28 06:11:12;;;;;;;14.57;10.20;;;6.30;73.90;;;;;;6233313;28;20259;-50
2022/03/28 06:14:13;;;;;;;12.90;9.93;;;6.30;73.90;;;;;;6267449;28;20271;-54
2022/03/28 06:17:21;;;;;;;12.50;9.63;;;6.50;73.10;;;;;;6272542;28;20188;-52
2022/03/28 06:20:22;;;;;;;13.63;9.43;;;6.60;72.70;;;;;;6248475;28;20209;-54
2022/03/28 06:23:23;;;;;;;16.73;10.30;;;6.70;72.60;;;;;;6254512;28;20197;-54
2022/03/28 06:26:24;;;;;;;15.23;10.27;;;6.80;72.20;;;;;;6270821;28;20220;-51
2022/03/28 06:29:24;;;;;;;14.63;10.70;;;6.90;71.70;;;;;;6247777;28;20246;-54
2022/03/28 06:32:25;;;;;;;15.83;10.97;;;7.00;71.30;;;;;;6264385;28;20222;-52
2022/03/28 06:35:26;;;;;;;15.33;10.83;;;7.00;71.30;;;;;;6269098;28;20223;-56
2022/03/28 06:38:27;;;;;;;12.97;9.30;;;7.10;71.20;;;;;;6289227;28;20192;-52
2022/03/28 06:41:28;;;;;;;16.30;10.13;;;7.20;70.60;;;;;;6305334;28;20195;-51
2022/03/28 06:44:29;;;;;;;13.17;9.93;;;7.20;70.00;;;;;;6271514;28;20196;-50
2022/03/28 06:47:30;;;;;;;14.20;10.40;;;7.30;69.70;;;;;;6269960;28;20200;-55
2022/03/28 06:50:33;;;;;;;13.07;10.63;;;7.30;70.10;;;;;;6269568;28;20186;-55
2022/03/28 06:53:34;;;;;;;12.07;9.17;;;7.30;70.60;;;;;;6278775;28;20284;-52
2022/03/28 06:56:36;;;;;;;15.93;11.27;;;7.40;69.80;;;;;;6246512;28;20194;-52
2022/03/28 06:59:37;;;;;;;12.77;9.73;;;7.60;69.50;;;;;;6291706;28;20198;-53
2022/03/28 07:02:38;;;;;;;14.60;10.67;;;7.60;69.20;;;;;;6279642;28;20209;-55
2022/03/28 07:05:39;;;;;;;14.00;11.10;;;7.70;68.80;;;;;;6302849;28;20189;-55
2022/03/28 07:08:40;;;;;;;13.93;10.67;;;7.80;68.70;;;;;;6288668;28;20219;-50
2022/03/28 07:11:40;;;;;;;13.97;9.37;;;7.80;69.40;;;;;;6270753;28;20205;-50
2022/03/28 07:14:42;;;;;;;12.83;11.00;;;7.90;68.50;;;;;;6287841;28;20239;-51
2022/03/28 07:18:10;;;;;;;14.90;10.70;;;8.00;68.70;;;;;;6239427;28;20190;-52
2022/03/28 07:21:10;;;;;;;14.63;10.90;;;8.10;67.90;;;;;;6251220;28;20194;-53
2022/03/28 07:24:11;;;;;;;14.47;10.50;;;8.20;67.50;;;;;;6269483;28;20204;-51
2022/03/28 07:27:12;;;;;;;12.80;9.43;;;8.30;67.60;;;;;;6270168;28;20255;-55
2022/03/28 07:30:14;;;;;;;15.53;10.17;;;8.30;68.10;;;;;;6253304;28;20197;-56
2022/03/28 07:33:15;;;;;;;15.63;10.87;;;8.40;67.20;;;;;;6238313;28;20309;-51
2022/03/28 07:36:17;;;;;;;16.67;10.50;;;8.50;66.90;;;;;;6237117;28;20196;-54
2022/03/28 07:39:20;;;;;;;14.10;10.80;;;8.60;66.90;;;;;;6237997;28;20280;-51
2022/03/28 07:42:21;;;;;;;15.53;11.13;;;8.70;66.00;;;;;;6254337;28;20239;-51
2022/03/28 07:45:23;;;;;;;15.10;9.80;;;8.90;64.90;;;;;;6229006;28;20210;-52
2022/03/28 07:48:24;;;;;;;15.40;10.53;;;8.90;65.80;;;;;;6229780;28;20194;-54
2022/03/28 07:51:25;;;;;;;17.83;12.47;;;9.00;65.50;;;;;;6240319;28;20193;-49
2022/03/28 07:54:25;;;;;;;15.10;10.57;;;9.20;63.20;;;;;;6281902;28;20213;-51
2022/03/28 07:57:27;;;;;;;16.50;11.50;;;9.40;62.30;;;;;;6236469;28;20244;-51
2022/03/28 08:00:29;;;;;;;13.97;10.10;;;9.50;63.20;;;;;;6252712;28;20189;-53
2022/03/28 08:03:30;;;;;;;13.47;10.40;;;9.50;62.90;;;;;;6236262;28;20190;-53
2022/03/28 08:06:32;;;;;;;14.50;10.77;;;9.70;61.70;;;;;;6237112;28;20293;-51
2022/03/28 08:09:32;;;;;;;16.30;11.13;;;9.80;61.20;;;;;;6235795;28;20197;-55
2022/03/28 08:12:36;;;;;;;17.50;10.03;;;9.80;60.90;;;;;;6235921;28;20313;-53
2022/03/28 08:15:37;;;;;;;12.50;9.77;;;10.00;60.30;;;;;;6253465;28;20269;-54
2022/03/28 08:18:39;;;;;;;15.53;11.80;;;10.10;60.00;;;;;;6219175;28;20247;-53
2022/03/28 08:21:40;;;;;;;18.47;10.20;;;10.20;60.10;;;;;;6237420;28;20186;-53
2022/03/28 08:24:41;;;;;;;13.23;10.30;;;10.30;59.70;;;;;;6237243;28;20228;-50
2022/03/28 08:27:41;;;;;;;13.63;9.63;;;10.40;59.30;;;;;;6254358;28;20320;-51
2022/03/28 08:30:43;;;;;;;13.13;9.40;;;10.60;58.40;;;;;;6275360;28;20190;-53
2022/03/28 08:33:44;;;;;;;12.40;9.00;;;10.70;57.40;;;;;;6274515;28;20220;-51
2022/03/28 08:36:45;;;;;;;13.67;9.57;;;10.80;57.60;;;;;;6256291;28;20201;-51
2022/03/28 08:39:46;;;;;;;12.83;9.80;;;10.80;58.10;;;;;;6251334;28;20683;-50
2022/03/28 08:42:48;;;;;;;13.43;8.90;;;11.00;58.00;;;;;;6274648;28;20255;-55
2022/03/28 08:45:50;;;;;;;12.47;8.37;;;11.10;57.80;;;;;;6217297;28;20212;-50
2022/03/28 08:48:54;;;;;;;13.53;9.47;;;11.20;58.10;;;;;;6255698;28;20197;-50
2022/03/28 08:51:55;;;;;;;11.83;9.70;;;11.30;57.40;;;;;;6255882;28;20213;-53
2022/03/28 08:54:56;;;;;;;11.77;9.90;;;11.60;56.20;;;;;;6256886;28;20301;-50
2022/03/28 08:57:57;;;;;;;11.93;8.97;;;11.70;56.50;;;;;;6254657;28;20195;-51
2022/03/28 09:00:58;;;;;;;10.67;8.77;;;11.90;55.80;;;;;;6256172;28;20236;-50
2022/03/28 09:04:07;;;;;;;13.67;9.03;;;12.00;56.00;;;;;;6256962;28;20181;-52
2022/03/28 09:07:08;;;;;;;11.33;8.67;;;12.10;55.50;;;;;;6273479;28;20191;-53
2022/03/28 09:10:17;;;;;;;13.20;9.83;;;12.20;55.70;;;;;;6255769;28;20197;-54
2022/03/28 09:13:19;;;;;;;13.13;9.47;;;12.30;54.60;;;;;;6264052;28;20225;-50
2022/03/28 09:16:20;;;;;;;17.40;9.30;;;12.60;54.10;;;;;;6233269;28;20282;-50
2022/03/28 09:19:21;;;;;;;13.10;8.97;;;12.70;53.70;;;;;;6223076;28;20200;-52
2022/03/28 09:22:30;;;;;;;14.67;10.63;;;12.90;52.80;;;;;;6272336;28;20284;-54
2022/03/28 09:25:49;;;;;;;13.83;9.93;;;13.20;51.40;;;;;;6256244;28;20195;-52
2022/03/28 09:28:53;;;;;;;10.97;9.10;;;13.20;51.50;;;;;;6274726;28;20309;-52
2022/03/28 09:31:53;;;;;;;14.80;9.70;;;13.30;51.10;;;;;;6297266;28;20275;-51
2022/03/28 09:35:09;;;;;;;12.63;10.60;;;13.40;51.20;;;;;;6280247;28;20200;-53
2022/03/28 09:38:11;;;;;;;16.20;11.13;;;13.60;51.40;;;;;;6296872;28;20186;-55
2022/03/28 09:41:11;;;;;;;14.47;9.73;;;13.80;50.10;;;;;;6279815;28;20243;-50
2022/03/28 09:44:12;;;;;;;17.23;10.43;;;14.00;50.40;;;;;;6297864;28;20184;-52
2022/03/28 09:47:19;;;;;;;13.60;10.73;;;14.00;50.00;;;;;;6264615;28;20200;-52
2022/03/28 09:50:30;;;;;;;17.67;11.47;;;14.10;50.00;;;;;;6263592;28;20193;-52
2022/03/28 09:53:38;;;;;;;14.27;11.80;;;14.30;49.20;;;;;;6296566;28;20221;-52
2022/03/28 09:56:39;;;;;;;16.60;12.27;;;14.40;49.40;;;;;;6288302;28;20257;-55
2022/03/28 09:59:42;;;;;;;15.70;10.93;;;14.50;48.50;;;;;;6260505;28;20192;-54
2022/03/28 10:02:43;;;;;;;14.07;10.73;;;14.40;48.50;;;;;;6296275;28;20263;-53
2022/03/28 10:05:45;;;;;;;18.40;11.67;;;14.40;48.80;;;;;;6280417;28;20651;-52
2022/03/28 10:08:46;;;;;;;18.53;12.67;;;14.50;49.90;;;;;;6264164;28;20190;-50
2022/03/28 10:11:47;;;;;;;16.70;12.00;;;14.80;48.20;;;;;;6297573;28;20189;-55
2022/03/28 10:14:54;;;;;;;18.70;12.27;;;14.80;48.50;;;;;;6294965;28;20298;-55
2022/03/28 10:17:54;;;;;;;16.90;11.23;;;14.90;47.80;;;;;;6295390;28;20247;-53
2022/03/28 10:20:57;;;;;;;18.33;11.70;;;15.00;47.40;;;;;;6296587;28;20193;-52
2022/03/28 10:24:22;;;;;;;22.03;12.13;;;14.90;46.60;;;;;;6295207;28;20244;-53
2022/03/28 10:27:24;;;;;;;17.67;12.67;;;15.00;46.60;;;;;;6300601;28;20242;-50
2022/03/28 10:30:27;;;;;;;19.07;11.80;;;15.30;46.20;;;;;;6237392;28;20218;-52
2022/03/28 10:33:28;;;;;;;16.43;11.20;;;15.30;45.90;;;;;;6239339;28;20242;-51
2022/03/28 10:36:32;;;;;;;18.03;11.83;;;15.50;45.40;;;;;;6237969;28;20204;-55
2022/03/28 10:39:36;;;;;;;15.37;11.47;;;15.60;44.50;;;;;;6254208;28;20182;-55
2022/03/28 10:42:37;;;;;;;16.60;11.40;;;15.70;44.70;;;;;;6252562;28;20191;-54
2022/03/28 10:45:49;;;;;;;15.47;11.73;;;15.80;44.00;;;;;;6230889;28;20204;-55
2022/03/28 10:49:00;;;;;;;14.57;10.70;;;15.90;44.10;;;;;;6229864;28;20202;-54
2022/03/28 10:52:02;;;;;;;17.73;11.80;;;15.90;43.40;;;;;;6217506;28;20283;-52
2022/03/28 10:55:10;;;;;;;14.20;10.07;;;16.00;43.10;;;;;;6219635;28;20199;-53
2022/03/28 10:58:23;;;;;;;13.83;11.67;;;16.10;43.20;;;;;;6237226;28;20190;-52
2022/03/28 11:01:42;;;;;;;16.07;12.40;;;16.40;41.80;;;;;;6238605;28;20216;-50
2022/03/28 11:04:49;;;;;;;16.13;12.07;;;16.50;43.20;;;;;;6253995;28;20182;-56
2022/03/28 11:08:00;;;;;;;12.07;10.30;;;16.60;42.20;;;;;;6230375;28;20194;-54
2022/03/28 11:11:17;;;;;;;13.20;10.33;;;16.80;42.70;;;;;;6229280;28;20281;-56
2022/03/28 11:14:18;;;;;;;15.90;11.23;;;17.20;41.40;;;;;;6230210;28;20219;-56
2022/03/28 11:17:21;;;;;;;12.53;9.87;;;17.20;41.70;;;;;;6237919;28;20202;-57
2022/03/28 11:20:23;;;;;;;16.50;10.17;;;17.20;40.70;;;;;;6277896;28;20193;-55
2022/03/28 11:23:24;;;;;;;18.57;10.20;;;17.40;41.70;;;;;;6253413;28;20202;-56
2022/03/28 11:26:25;;;;;;;13.10;10.47;;;17.40;41.10;;;;;;6237785;28;20189;-53
2022/03/28 11:29:28;;;;;;;15.63;11.13;;;17.80;40.30;;;;;;6241249;28;20290;-56
2022/03/28 11:32:33;;;;;;;12.40;9.77;;;18.00;39.80;;;;;;6252140;28;20215;-54
2022/03/28 11:35:34;;;;;;;14.93;10.43;;;18.10;40.20;;;;;;6258510;28;20182;-56
2022/03/28 11:38:42;;;;;;;13.10;10.90;;;18.30;38.90;;;;;;6263618;28;20258;-55
2022/03/28 11:41:43;;;;;;;13.90;10.67;;;18.50;38.00;;;;;;6267343;28;20260;-56
2022/03/28 11:44:44;;;;;;;15.80;10.57;;;18.50;37.90;;;;;;6251035;28;20292;-54
2022/03/28 11:47:52;;;;;;;13.80;11.77;;;18.60;37.30;;;;;;6243201;28;20228;-58
2022/03/28 11:50:55;;;;;;;18.23;10.80;;;18.90;36.20;;;;;;6228410;28;20516;-56
2022/03/28 11:54:05;;;;;;;15.93;10.47;;;19.00;35.50;;;;;;6238392;28;20223;-56
2022/03/28 12:00:26;;;;;;;16.53;11.47;;;19.60;35.20;;;;;;6256797;28;20190;-58
2022/03/28 12:03:27;;;;;;;15.37;11.20;;;19.80;34.10;;;;;;6246688;28;20198;-57
2022/03/28 12:06:36;;;;;;;14.83;11.50;;;19.90;33.50;;;;;;6252042;28;20327;-55
2022/03/28 12:09:43;;;;;;;16.70;12.03;;;20.10;33.30;;;;;;6260737;28;20277;-56
2022/03/28 12:12:45;;;;;;;16.43;11.00;;;20.40;32.40;;;;;;6276191;28;20213;-56
2022/03/28 12:15:49;;;;;;;15.70;11.13;;;20.90;32.60;;;;;;6246702;28;20197;-57
2022/03/28 12:18:53;;;;;;;16.80;12.33;;;21.30;31.20;;;;;;6258560;28;20263;-57
2022/03/28 12:21:56;;;;;;;17.40;13.70;;;24.00;28.40;;;;;;6240739;28;20206;-54
2022/03/28 12:24:57;;;;;;;16.77;12.67;;;26.40;24.70;;;;;;6266867;28;20186;-58
2022/03/28 12:27:59;;;;;;;15.90;11.53;;;28.00;22.90;;;;;;6246098;28;20241;-58
2022/03/28 12:31:06;;;;;;;20.67;13.30;;;28.80;21.50;;;;;;6291117;28;20205;-58
2022/03/28 12:34:07;;;;;;;16.87;13.07;;;29.10;21.10;;;;;;6308269;28;20222;-58
2022/03/28 12:37:12;;;;;;;18.53;14.07;;;28.70;21.90;;;;;;6274493;28;20259;-59
2022/03/28 12:40:13;;;;;;;17.10;13.47;;;28.70;21.30;;;;;;6307746;28;20204;-58
2022/03/28 12:43:15;;;;;;;14.80;13.30;;;28.60;21.20;;;;;;6256351;28;20210;-59
2022/03/28 12:46:16;;;;;;;14.77;12.43;;;28.00;21.50;;;;;;6274004;28;20188;-58
2022/03/28 12:49:20;;;;;;;14.57;13.03;;;28.50;21.50;;;;;;6255997;28;20243;-59
2022/03/28 12:52:24;;;;;;;16.87;13.27;;;28.10;21.40;;;;;;6287995;28;20297;-59
2022/03/28 12:55:26;;;;;;;15.90;13.43;;;28.20;21.80;;;;;;6290687;28;20182;-59
2022/03/28 12:58:35;;;;;;;15.57;12.80;;;28.90;20.30;;;;;;6273370;28;20197;-58
2022/03/28 13:01:36;;;;;;;14.77;13.27;;;29.30;21.20;;;;;;6291356;28;20207;-58
2022/03/28 13:04:52;;;;;;;12.67;11.37;;;30.40;20.80;;;;;;6305612;28;20201;-58
2022/03/28 13:07:53;;;;;;;17.63;12.53;;;31.70;19.40;;;;;;6315097;28;20239;-59
2022/03/28 13:10:57;;;;;;;17.67;11.43;;;33.80;18.00;;;;;;6280917;28;20197;-59
2022/03/28 13:13:58;;;;;;;13.87;11.77;;;35.90;15.70;;;;;;6278066;28;20228;-59
2022/03/28 13:17:13;;;;;;;15.20;11.60;;;37.60;13.80;;;;;;6316209;28;20232;-58
2022/03/28 13:20:19;;;;;;;14.00;12.60;;;39.40;13.00;;;;;;6282007;28;20225;-59
2022/03/28 13:23:22;;;;;;;14.27;11.63;;;39.70;13.30;;;;;;6246241;28;20276;-58
2022/03/28 13:26:23;;;;;;;15.10;12.60;;;41.50;12.50;;;;;;6315904;28;20235;-57
2022/03/28 13:29:27;;;;;;;15.73;12.43;;;42.80;11.20;;;;;;6292355;28;20236;-56
2022/03/28 13:32:28;;;;;;;13.40;12.03;;;43.60;11.10;;;;;;6329984;28;20205;-54
2022/03/28 13:35:29;;;;;;;13.50;12.20;;;44.10;11.10;;;;;;6279901;28;20196;-55
2022/03/28 13:38:34;;;;;;;16.70;11.83;;;44.20;10.10;;;;;;6294540;28;20189;-55
2022/03/28 13:41:35;;;;;;;14.33;11.17;;;44.70;10.40;;;;;;6293497;28;20194;-55
2022/03/28 13:44:36;;;;;;;13.07;11.77;;;44.50;10.80;;;;;;6282447;28;20197;-56
2022/03/28 13:47:37;;;;;;;13.47;11.50;;;45.00;10.00;;;;;;6255862;28;20208;-55
2022/03/28 13:50:42;;;;;;;11.40;10.30;;;44.10;10.00;;;;;;6290951;28;20224;-54
2022/03/28 13:53:43;;;;;;;11.97;10.80;;;44.30;10.40;;;;;;6307044;28;20224;-56
2022/03/28 13:56:44;;;;;;;12.10;10.70;;;43.50;10.70;;;;;;6294928;28;20231;-55
2022/03/28 13:59:45;;;;;;;11.50;10.43;;;44.30;10.60;;;;;;6296741;28;20275;-55
2022/03/28 14:02:46;;;;;;;13.97;12.17;;;45.10;10.50;;;;;;6309798;28;20746;-54
2022/03/28 14:05:51;;;;;;;11.73;10.63;;;45.40;10.00;;;;;;6273251;28;20193;-55
2022/03/28 14:08:53;;;;;;;12.90;11.43;;;45.50;10.20;;;;;;6291591;28;20202;-55
2022/03/28 14:11:53;;;;;;;12.00;10.77;;;44.80;9.90;;;;;;6325763;28;20217;-55
2022/03/28 14:14:55;;;;;;;11.80;10.57;;;45.70;10.20;;;;;;6296073;28;20203;-55
2022/03/28 14:17:57;;;;;;;14.20;11.53;;;46.40;9.70;;;;;;6294220;28;20193;-55
2022/03/28 14:20:58;;;;;;;13.03;11.73;;;46.10;9.80;;;;;;6273608;28;20194;-55
2022/03/28 14:23:59;;;;;;;12.37;11.07;;;46.30;9.70;;;;;;6246897;28;20193;-55
2022/03/28 14:27:00;;;;;;;11.87;10.67;;;45.90;10.00;;;;;;6302096;28;20236;-56
2022/03/28 14:30:01;;;;;;;11.50;10.30;;;45.60;10.00;;;;;;6261602;28;20219;-55
2022/03/28 14:33:03;;;;;;;12.60;11.30;;;45.70;10.00;;;;;;6282578;28;20200;-56
2022/03/28 14:36:05;;;;;;;12.60;11.17;;;45.70;9.50;;;;;;6260552;28;20273;-56
2022/03/28 14:39:06;;;;;;;16.43;11.17;;;46.00;9.80;;;;;;6267516;28;20181;-57
2022/03/28 14:42:07;;;;;;;12.50;10.30;;;45.70;10.00;;;;;;6259239;28;20192;-57
2022/03/28 14:45:09;;;;;;;10.97;9.67;;;44.70;10.30;;;;;;6238389;28;20197;-58
2022/03/28 14:48:10;;;;;;;12.50;9.77;;;45.00;10.00;;;;;;6250117;28;20255;-57
2022/03/28 14:51:14;;;;;;;11.40;9.83;;;45.00;9.60;;;;;;6256470;28;20231;-57
2022/03/28 14:54:15;;;;;;;12.40;10.43;;;44.10;9.60;;;;;;6248087;28;20221;-57
2022/03/28 14:57:17;;;;;;;12.47;9.87;;;44.30;9.50;;;;;;6240838;28;20185;-58
2022/03/28 15:00:18;;;;;;;12.47;10.50;;;44.70;9.50;;;;;;6256684;28;20198;-58
2022/03/28 15:03:18;;;;;;;12.97;10.40;;;44.40;9.20;;;;;;6240304;28;20243;-58
2022/03/28 15:06:20;;;;;;;14.17;10.23;;;44.40;9.50;;;;;;6240716;28;20256;-58
2022/03/28 15:09:21;;;;;;;10.50;9.60;;;44.50;10.10;;;;;;6239312;28;20194;-57
2022/03/28 15:12:22;;;;;;;11.47;10.23;;;43.90;9.70;;;;;;6249531;28;20217;-58
2022/03/28 15:15:23;;;;;;;13.30;10.53;;;43.10;10.50;;;;;;6240381;28;20182;-57
2022/03/28 15:18:24;;;;;;;11.33;10.13;;;41.80;10.20;;;;;;6240368;28;20288;-58
2022/03/28 15:21:25;;;;;;;12.47;10.50;;;38.40;11.90;;;;;;6239964;28;20189;-57
2022/03/28 15:24:25;;;;;;;11.87;10.63;;;33.70;15.30;;;;;;6226391;28;20197;-57
2022/03/28 15:27:26;;;;;;;12.60;11.10;;;31.70;15.70;;;;;;6240090;28;20233;-58
2022/03/28 15:30:27;;;;;;;11.07;9.87;;;30.80;16.80;;;;;;6240185;28;20300;-56
2022/03/28 15:33:28;;;;;;;12.50;10.80;;;29.50;19.10;;;;;;6240175;28;20255;-58
2022/03/28 15:36:30;;;;;;;13.27;9.77;;;29.10;19.10;;;;;;6220791;28;20195;-57
2022/03/28 15:39:31;;;;;;;13.33;9.97;;;28.60;18.80;;;;;;6272850;28;20193;-58
2022/03/28 15:42:33;;;;;;;14.57;9.73;;;27.90;18.50;;;;;;6266515;28;20197;-58